• Join FlightAware (Why Join?)
  • Login
  • US Flag 
10:44PM EDT


 

Airport Tracker/Info


-or-


 

Live Flight TrackerFlight Track Log ✈ N364JB ✈ 09-May-2013 ✈ KCID - KGRR

Flight Track Log - Related Links

Times and Time Zones

All times are in EDT time to prevent confusion due to time zone crossing. See the N364JB flight status page for this flight to view local times or setup timezone preferences in your user account.

Time Position Orientation Groundspeed Altitude Reporting Facility
EDT Latitude Longitude Course Direction KTS MPH feet Rate Location/Type
06:59PM 41.9339 -91.7450 75° East 123 142 2,600  Level Chicago Center
07:00PM 41.9522 -91.7042 59° Northeast 140 161 3,400 840 Climbing Chicago Center
07:01PM 41.9622 -91.6481 77° East 133 153 4,400 780 Climbing Chicago Center
07:02PM 41.9697 -91.6028 77° East 130 150 5,100 600 Climbing Chicago Center
07:03PM 41.9587 -91.3387 75° East  Level FlightAware Approximate
07:03PM 41.9794 -91.5575 74° East 128 147 5,700  Level Chicago Center
07:04PM 41.9705 -91.2778 75° East  Level FlightAware Approximate
07:04PM 41.9875 -91.5125 76° East 127 146 6,400  Level Chicago Center
07:05PM 41.9892 -91.4586 88° East 122 140 7,000 300 Climbing Chicago Center
07:06PM 41.9892 -91.4067 90° East 133 153 7,100  Climbing Chicago Center
07:07PM 41.9900 -91.3422 89° East 162 186 7,100  Level Chicago Center
07:08PM 41.9906 -91.2786 89° East 169 194 7,100  Level Chicago Center
07:09PM 41.9897 -91.2156 91° East 170 196 7,100  Level Chicago Center
07:10PM 41.9906 -91.1394 89° East 171 197 7,200  Climbing Chicago Center
07:11PM 41.9906 -91.0736 90° East 175 201 7,100 -60 Descending Chicago Center
07:12PM 41.9908 -91.0081 90° East 176 203 7,100  Level Chicago Center
07:13PM 41.9914 -90.9411 89° East 179 206 7,100  Level Chicago Center
07:14PM 41.9931 -90.8781 88° East 175 201 7,100  Level Chicago Center
07:15PM 42.0039 -90.8067 78° East 166 191 7,100  Level Chicago Center
07:16PM 42.0194 -90.7461 71° East 170 196 7,100  Level Chicago Center
07:17PM 42.0333 -90.6842 73° East 173 199 7,100  Level Chicago Center
07:19PM 42.0458 -90.6253 74° East 170 196 7,100  Level Chicago Center
07:20PM 42.0592 -90.5664 73° East 168 193 7,100 -60 Level Chicago Center
07:21PM 42.0744 -90.4931 74° East 170 196 7,000 -60 Descending Chicago Center
07:22PM 42.0878 -90.4328 73° East 170 196 7,000  Level Chicago Center
07:23PM 42.1003 -90.3725 74° East 170 196 7,000  Level Chicago Center
07:24PM 42.1147 -90.3103 73° East 174 200 7,000  Level Chicago Center
07:25PM 42.1297 -90.2364 75° East 173 199 7,100  Climbing Chicago Center
07:26PM 42.1428 -90.1736 74° East 175 201 7,100  Level Chicago Center
07:27PM 42.1567 -90.1114 73° East 176 203 7,100  Level Chicago Center
07:28PM 42.1694 -90.0500 74° East 174 200 7,100  Level Chicago Center
07:29PM 42.1825 -89.9875 74° East 175 201 7,100  Level Chicago Center
07:30PM 42.1986 -89.9117 74° East 176 203 7,100  Level Chicago Center
07:31PM 42.2108 -89.8533 74° East 177 204 7,100  Level Chicago Center
07:32PM 42.2369 -89.7839 63° Northeast 177 204 7,100  Level Chicago Center
07:33PM 42.2567 -89.7219 67° East 179 206 7,100  Level Chicago Center
07:34PM 42.2797 -89.6636 62° Northeast 177 204 7,100 -60 Level Chicago Center
07:35PM 42.3003 -89.6042 65° Northeast 175 201 7,000 -60 Descending Chicago Center
07:36PM 42.3217 -89.5444 64° Northeast 174 200 7,000  Level Chicago Center
07:37PM 42.3458 -89.4756 65° Northeast 175 201 7,000  Level Chicago Center
07:38PM 42.3675 -89.4144 64° Northeast 177 204 7,000  Level Chicago Center
07:39PM 42.3886 -89.3550 64° Northeast 177 204 7,000  Level Chicago Center
07:40PM 42.4108 -89.2956 63° Northeast 177 204 7,000 60 Level Chicago Center
07:41PM 42.4319 -89.2364 64° Northeast 176 203 7,200 300 Climbing Chicago Center
07:42PM 42.4494 -89.1831 66° East 161 185 7,700 480 Climbing Chicago Center
07:43PM 42.4717 -89.1247 63° Northeast 151 174 8,200 480 Climbing Chicago Center
07:44PM 42.4886 -89.0775 64° Northeast 143 165 8,700 360 Climbing Chicago Center
07:45PM 42.5061 -89.0289 64° Northeast 143 165 9,000 120 Climbing Chicago Center
07:46PM 42.5108 -88.9719 84° East 153 176 9,000  Level Chicago Center
07:47PM 42.5139 -88.9125 86° East 157 181 9,000  Level Chicago Center
07:48PM 42.5206 -88.8411 83° East 164 189 9,000  Level Chicago Center
07:50PM 42.5261 -88.7772 83° East 169 194 9,000  Level Chicago Center
07:51PM 42.5314 -88.7122 84° East 174 200 9,000  Level Chicago Center
07:52PM 42.5375 -88.6486 83° East 172 198 9,000  Level Chicago Center
07:53PM 42.5431 -88.5831 83° East 174 200 9,000  Level Chicago Center
07:54PM 42.5497 -88.5053 83° East 176 203 9,000  Level Chicago Center
07:55PM 42.5569 -88.4397 81° East 177 204 9,100  Climbing Chicago Center
07:56PM 42.5875 -88.3839 53° Northeast 184 212 9,100  Level Chicago Center
07:57PM 42.6172 -88.3278 54° Northeast 184 212 9,100  Level Chicago Center
07:58PM 42.6475 -88.2714 54° Northeast 184 212 9,100  Level Chicago Center
07:59PM 42.6825 -88.2064 54° Northeast 183 211 9,100  Level Chicago Center
08:00PM 42.7103 -88.1467 58° Northeast 191 220 9,100  Level Chicago Center
08:01PM 42.7128 -88.0847 87° East 170 196 9,100  Level Chicago Center
08:02PM 42.7172 -88.0203 85° East 171 197 9,100  Level Chicago Center
08:03PM 42.7231 -87.9467 84° East 168 193 9,100 -60 Level Chicago Center
08:04PM 42.7281 -87.8833 84° East 168 193 9,000  Descending Chicago Center
08:05PM 42.7322 -87.8200 85° East 170 196 9,100  Climbing Chicago Center
08:06PM 42.7372 -87.7550 84° East 171 197 9,100  Level Chicago Center
08:07PM 42.7414 -87.6922 85° East 169 194 9,100  Level Chicago Center
08:08PM 42.7472 -87.6178 84° East 171 197 9,100  Level Chicago Center
08:09PM 42.7517 -87.5544 85° East 169 194 9,100  Level Chicago Center
08:10PM 42.7567 -87.4914 84° East 169 194 9,100  Level Chicago Center
08:11PM 42.7608 -87.4286 85° East 166 191 9,100  Level Chicago Center
08:12PM 42.7647 -87.3681 85° East 167 192 9,100  Level Chicago Center
08:13PM 42.7689 -87.3047 85° East 168 193 9,100  Level Chicago Center
08:14PM 42.7747 -87.2292 84° East 168 193 9,100  Level Chicago Center
08:15PM 42.7794 -87.1661 84° East 168 193 9,100  Level Chicago Center
08:16PM 42.7803 -87.1036 89° East 167 192 9,100  Level Chicago Center
08:17PM 42.7722 -87.0414 100° East 164 189 9,100  Level Chicago Center
08:19PM 42.7647 -86.9814 100° East 164 189 9,100  Level Chicago Center
08:20PM 42.7556 -86.9092 100° East 163 188 9,100  Level Chicago Center
08:21PM 42.7494 -86.8478 98° East 164 189 9,100  Level Chicago Center
08:22PM 42.7417 -86.7875 100° East 164 189 9,100  Level Chicago Center
08:23PM 42.7350 -86.7256 98° East 165 190 9,100  Level Chicago Center
08:24PM 42.7283 -86.6658 99° East 163 188 9,100  Level Chicago Center
08:25PM 42.7222 -86.6058 98° East 162 186 9,100  Level Chicago Center
08:26PM 42.7144 -86.5333 98° East 163 188 9,100 -60 Level Chicago Center
08:27PM 42.7075 -86.4747 99° East 160 184 9,000  Descending Chicago Center
08:28PM 42.7000 -86.4133 99° East 164 189 9,100 -60 Climbing Chicago Center
08:29PM 42.6922 -86.3497 99° East 170 196 8,900 -300 Descending Chicago Center
08:30PM 42.6839 -86.2833 100° East 177 204 8,500 -540 Descending Chicago Center
08:31PM 42.6933 -86.2017 81° East 200 230 7,900 -540 Descending Chicago Center
08:32PM 42.7094 -86.1317 73° East 198 228 7,400 -480 Descending Chicago Center
08:33PM 42.7275 -86.0650 70° East 192 221 7,000 -480 Descending Chicago Center
08:34PM 42.7467 -85.9969 69° East 193 222 6,500 -480 Descending Chicago Center
08:35PM 42.7667 -85.9286 68° East 195 224 6,100 -720 Descending Chicago Center
08:36PM 42.7875 -85.8447 71° East 196 226 5,100 -960 Descending Chicago Center
08:37PM 42.7958 -85.7722 81° East 197 227 4,200 -780 Descending Chicago Center
08:38PM 42.8036 -85.7036 81° East 189 217 3,600 -540 Descending Chicago Center
08:39PM 42.8111 -85.6383 81° East 179 206 3,100 -240 Descending Chicago Center
08:40PM 42.8169 -85.5753 83° East 173 199 3,200  Climbing Chicago Center
08:41PM 42.8258 -85.5039 80° East 161 185 3,200 -60 Level Chicago Center
08:42PM 42.8339 -85.4436 80° East 163 188 3,100 -480 Descending Chicago Center
08:43PM 42.8781 -85.4375 North 163 188 2,300 -840 Descending Chicago Center
08:44PM 42.8839 -85.4781 281° West 129 148 1,400 -720 Descending Chicago Center
08:45PM 42.8794 -85.5169 261° West 113 130 900 -540 Descending Chicago Center
08:47PM 42.8808 -85.5228 288° West  Level Estimated